createdAt,value
2022-11-29T00:00:31.617Z,78.76
2022-11-29T00:02:58.475Z,77.78
2022-11-29T00:05:25.286Z,76.86
2022-11-29T00:07:52.185Z,77.77
2022-11-29T00:10:19.142Z,79.63
2022-11-29T00:12:49.027Z,81.51
2022-11-29T00:15:15.932Z,80.35
2022-11-29T00:17:42.804Z,77.11
2022-11-29T00:20:11.158Z,77.77
2022-11-29T00:22:38.125Z,78.06
2022-11-29T00:25:06.049Z,78.49
2022-11-29T00:27:32.817Z,79.97
2022-11-29T00:29:59.635Z,81.26
2022-11-29T00:32:26.376Z,81.58
2022-11-29T00:34:53.124Z,81.66
2022-11-29T00:37:19.901Z,79.79
2022-11-29T00:39:46.637Z,79.85
2022-11-29T00:42:13.336Z,82.72
2022-11-29T00:44:40.101Z,83.52
2022-11-29T00:47:06.948Z,83.52
2022-11-29T00:49:33.828Z,83.68
2022-11-29T00:52:00.528Z,83.16
2022-11-29T00:54:27.266Z,82.97
2022-11-29T00:56:54.801Z,83.49
2022-11-29T00:59:21.843Z,83.97
2022-11-29T01:01:48.685Z,85.04
2022-11-29T01:04:15.527Z,83.72
2022-11-29T01:06:42.440Z,84.69
2022-11-29T01:09:09.156Z,85.12
2022-11-29T01:11:36.120Z,84.81
2022-11-29T01:14:04.171Z,85.06
2022-11-29T01:16:32.345Z,84.44
2022-11-29T01:18:59.387Z,84.69
2022-11-29T01:21:26.430Z,85.62
2022-11-29T01:23:53.775Z,85.93
2022-11-29T01:26:25.886Z,86.90
2022-11-29T01:28:53.745Z,86.50
2022-11-29T01:31:24.898Z,83.81
2022-11-29T01:33:55.348Z,85.70
2022-11-29T01:36:22.232Z,84.38
2022-11-29T01:38:48.904Z,84.79
2022-11-29T01:41:17.144Z,85.51
2022-11-29T01:43:56.444Z,84.57
2022-11-29T01:46:23.629Z,86.15
2022-11-29T01:48:52.027Z,85.06
2022-11-29T01:51:18.788Z,84.78
2022-11-29T01:53:45.588Z,84.42
2022-11-29T01:56:14.764Z,84.46
2022-11-29T01:58:42.261Z,84.38
2022-11-29T02:01:09.132Z,84.87
2022-11-29T02:03:36.015Z,83.61
2022-11-29T02:06:03.464Z,82.07
2022-11-29T02:08:33.923Z,84.80
2022-11-29T02:11:16.039Z,83.56
2022-11-29T02:13:54.867Z,83.62
2022-11-29T02:16:30.998Z,82.99
2022-11-29T02:18:57.703Z,84.37
2022-11-29T02:21:30.254Z,83.87
2022-11-29T02:24:07.678Z,82.33
2022-11-29T02:26:43.360Z,83.78
2022-11-29T02:29:29.025Z,84.02
2022-11-29T02:32:14.623Z,84.45
2022-11-29T02:35:00.029Z,84.41
2022-11-29T02:37:38.414Z,83.63
2022-11-29T02:40:13.656Z,83.10
2022-11-29T02:42:55.821Z,82.55
2022-11-29T02:45:23.120Z,81.40
2022-11-29T02:48:08.760Z,82.52
2022-11-29T02:50:53.654Z,84.32
2022-11-29T02:53:20.370Z,83.17
2022-11-29T02:55:47.089Z,82.38
2022-11-29T02:58:32.610Z,83.46
2022-11-29T03:01:07.889Z,83.08
2022-11-29T03:03:42.507Z,81.40
2022-11-29T03:06:18.495Z,82.40
2022-11-29T03:09:05.689Z,84.13
2022-11-29T03:11:38.633Z,81.57
2022-11-29T03:14:05.427Z,81.85
2022-11-29T03:16:43.013Z,80.45
2022-11-29T03:19:29.244Z,83.09
2022-11-29T03:22:05.170Z,82.00
2022-11-29T03:24:36.216Z,80.53
2022-11-29T03:27:06.808Z,82.36
2022-11-29T03:29:36.591Z,83.28
2022-11-29T03:32:14.333Z,84.01
2022-11-29T03:34:54.286Z,82.50
2022-11-29T03:37:39.322Z,82.82
2022-11-29T03:40:06.334Z,82.84
2022-11-29T03:42:37.090Z,83.28
2022-11-29T03:45:24.034Z,83.18
2022-11-29T03:48:17.147Z,83.93
2022-11-29T03:50:48.253Z,84.26
2022-11-29T03:53:18.164Z,83.76
2022-11-29T03:55:53.933Z,83.63
2022-11-29T03:58:23.465Z,84.94
2022-11-29T04:00:50.115Z,83.39
2022-11-29T04:03:22.908Z,83.76
2022-11-29T04:06:01.892Z,83.32
2022-11-29T04:08:47.342Z,82.60
2022-11-29T04:11:36.233Z,82.53
2022-11-29T04:14:22.210Z,84.00
2022-11-29T04:16:54.958Z,84.11
2022-11-29T04:19:40.658Z,81.72
2022-11-29T04:22:10.464Z,80.01
2022-11-29T04:24:55.833Z,81.06
2022-11-29T04:27:22.557Z,80.48
2022-11-29T04:29:49.441Z,78.82
2022-11-29T04:32:16.144Z,78.57
2022-11-29T04:34:54.355Z,76.67
2022-11-29T04:37:39.193Z,78.86
2022-11-29T04:40:17.417Z,77.22
2022-11-29T04:43:06.596Z,77.34
2022-11-29T04:45:58.624Z,76.56
2022-11-29T04:48:40.618Z,77.15
2022-11-29T04:51:21.752Z,79.81
2022-11-29T04:53:52.779Z,79.28
2022-11-29T04:56:24.562Z,78.54
2022-11-29T04:58:57.620Z,80.60
2022-11-29T05:01:47.020Z,79.94
2022-11-29T05:04:46.746Z,77.86
2022-11-29T05:07:36.933Z,78.16
2022-11-29T05:10:19.065Z,77.99
2022-11-29T05:12:58.009Z,81.24
2022-11-29T05:15:43.497Z,80.88
2022-11-29T05:18:42.375Z,81.50
2022-11-29T05:21:20.474Z,81.80
2022-11-29T05:23:59.352Z,79.97
2022-11-29T05:26:44.040Z,80.99
2022-11-29T05:29:21.928Z,81.33
2022-11-29T05:32:07.554Z,81.18
2022-11-29T05:34:49.020Z,81.52
2022-11-29T05:37:23.561Z,82.42
2022-11-29T05:40:02.470Z,81.48
2022-11-29T05:42:37.061Z,81.44
2022-11-29T05:45:03.847Z,81.61
2022-11-29T05:47:41.474Z,80.94
2022-11-29T05:50:11.506Z,80.91
2022-11-29T05:52:47.785Z,82.63
2022-11-29T05:55:14.498Z,82.93
2022-11-29T05:57:53.563Z,82.51
2022-11-29T06:00:20.451Z,82.07
2022-11-29T06:03:04.096Z,83.10
2022-11-29T06:05:35.478Z,83.59
2022-11-29T06:08:05.178Z,83.09
2022-11-29T06:10:34.191Z,82.53
2022-11-29T06:13:16.034Z,84.82
2022-11-29T06:15:56.920Z,82.53
2022-11-29T06:18:50.024Z,81.97
2022-11-29T06:21:55.460Z,82.18
2022-11-29T06:24:41.906Z,82.27
2022-11-29T06:27:31.929Z,82.06
2022-11-29T06:30:04.841Z,82.17
2022-11-29T06:32:44.296Z,80.96
2022-11-29T06:35:13.989Z,81.30
2022-11-29T06:37:44.061Z,81.83
2022-11-29T06:40:15.020Z,80.48
2022-11-29T06:42:42.107Z,81.87
2022-11-29T06:45:11.076Z,82.65
2022-11-29T06:47:42.882Z,81.32
2022-11-29T06:50:24.914Z,79.13
2022-11-29T06:53:04.418Z,77.27
2022-11-29T06:55:42.515Z,77.28
2022-11-29T06:58:18.174Z,77.52
2022-11-29T07:00:55.445Z,76.50
2022-11-29T07:03:45.257Z,76.34
2022-11-29T07:06:19.285Z,78.34
2022-11-29T07:08:47.716Z,79.75
2022-11-29T07:11:15.235Z,78.40
2022-11-29T07:13:42.160Z,79.13
2022-11-29T07:16:09.103Z,79.33
2022-11-29T07:18:55.022Z,77.92
2022-11-29T07:21:32.097Z,80.96
2022-11-29T07:24:17.691Z,80.77
2022-11-29T07:27:08.683Z,80.58
2022-11-29T07:29:55.537Z,80.00
2022-11-29T07:32:22.502Z,79.27
2022-11-29T07:34:59.767Z,81.21
2022-11-29T07:37:29.572Z,80.67
2022-11-29T07:40:08.458Z,82.70
2022-11-29T07:42:52.501Z,83.44
2022-11-29T07:45:32.038Z,81.14
2022-11-29T07:47:59.246Z,83.04
2022-11-29T07:50:30.878Z,81.32
2022-11-29T07:52:59.056Z,80.98
2022-11-29T07:55:27.998Z,81.83
2022-11-29T07:57:54.989Z,82.31
2022-11-29T08:00:21.935Z,82.46
2022-11-29T08:02:49.829Z,80.48
2022-11-29T08:05:17.478Z,79.76
2022-11-29T08:07:44.285Z,81.80
2022-11-29T08:10:12.720Z,81.04
2022-11-29T08:12:47.657Z,79.30
2022-11-29T08:15:14.701Z,80.62
2022-11-29T08:17:41.491Z,79.01
2022-11-29T08:20:11.696Z,80.10
2022-11-29T08:22:38.416Z,80.78
2022-11-29T08:25:06.273Z,79.98
2022-11-29T08:27:33.645Z,80.32
2022-11-29T08:30:00.737Z,81.20
2022-11-29T08:32:27.783Z,79.72
2022-11-29T08:34:54.697Z,82.36
2022-11-29T08:37:21.496Z,82.30
2022-11-29T08:39:48.235Z,81.09
2022-11-29T08:42:15.283Z,81.66
2022-11-29T08:44:43.677Z,80.58
2022-11-29T08:47:29.800Z,79.64
2022-11-29T08:50:02.631Z,80.64
2022-11-29T08:52:48.988Z,80.42
2022-11-29T08:55:16.403Z,80.13
2022-11-29T08:57:46.606Z,79.78
2022-11-29T09:00:17.313Z,80.64
2022-11-29T09:02:44.273Z,79.24
2022-11-29T09:05:11.741Z,81.00
2022-11-29T09:07:39.083Z,80.12
2022-11-29T09:10:08.425Z,81.19
2022-11-29T09:12:36.774Z,79.86
2022-11-29T09:15:08.128Z,79.16
2022-11-29T09:17:35.108Z,79.76
2022-11-29T09:20:02.167Z,77.11
2022-11-29T09:22:28.941Z,76.67
2022-11-29T09:24:55.848Z,76.30
2022-11-29T09:27:23.057Z,76.67
2022-11-29T09:29:49.852Z,77.86
2022-11-29T09:32:16.840Z,75.91
2022-11-29T09:34:44.030Z,77.41
2022-11-29T09:37:11.193Z,77.46
2022-11-29T09:39:40.852Z,79.08
2022-11-29T09:42:27.368Z,79.42
2022-11-29T09:44:56.510Z,78.23
2022-11-29T09:47:45.941Z,78.02
2022-11-29T09:50:27.006Z,77.56
2022-11-29T09:53:12.444Z,78.53
2022-11-29T09:55:58.141Z,78.29
2022-11-29T09:58:30.568Z,77.73
2022-11-29T10:01:06.521Z,77.24
2022-11-29T10:03:37.809Z,77.33
2022-11-29T10:06:09.122Z,76.82
2022-11-29T10:08:40.385Z,77.41
2022-11-29T10:11:18.391Z,78.60
2022-11-29T10:13:48.995Z,79.00
2022-11-29T10:16:21.442Z,78.51
2022-11-29T10:19:12.726Z,78.06
2022-11-29T10:21:42.156Z,76.18
2022-11-29T10:24:20.809Z,78.23
2022-11-29T10:26:47.711Z,77.06
2022-11-29T10:29:15.591Z,77.99
2022-11-29T10:31:44.687Z,77.92
2022-11-29T10:34:16.047Z,77.21
2022-11-29T10:36:45.114Z,75.30
2022-11-29T10:39:30.721Z,75.98
2022-11-29T10:42:00.086Z,77.10
2022-11-29T10:44:27.297Z,76.61
2022-11-29T10:46:54.796Z,75.11
2022-11-29T10:49:25.189Z,74.18
2022-11-29T10:51:52.001Z,72.66
2022-11-29T10:54:37.325Z,75.13
2022-11-29T10:57:08.822Z,74.41
2022-11-29T10:59:35.625Z,73.81
2022-11-29T11:02:04.706Z,73.87
2022-11-29T11:04:35.960Z,73.50
2022-11-29T11:07:04.501Z,72.51
2022-11-29T11:09:37.276Z,73.73
2022-11-29T11:12:17.285Z,72.82
2022-11-29T11:14:48.369Z,75.21
2022-11-29T11:17:19.565Z,71.13
2022-11-29T11:20:05.912Z,74.00
2022-11-29T11:22:33.918Z,73.24
2022-11-29T11:25:06.364Z,72.32
2022-11-29T11:27:40.160Z,73.33
2022-11-29T11:30:10.310Z,72.79
2022-11-29T11:32:37.157Z,72.24
2022-11-29T11:35:21.608Z,71.08
2022-11-29T11:37:56.445Z,71.36
2022-11-29T11:40:29.436Z,71.51
2022-11-29T11:43:00.976Z,72.17
2022-11-29T11:45:34.135Z,72.01
2022-11-29T11:48:14.380Z,71.29
2022-11-29T11:50:45.346Z,71.75
2022-11-29T11:53:24.700Z,73.07
2022-11-29T11:55:59.769Z,71.61
2022-11-29T11:58:29.897Z,72.43
2022-11-29T12:01:06.193Z,73.02
2022-11-29T12:03:48.475Z,73.43
2022-11-29T12:06:15.325Z,72.88
2022-11-29T12:08:48.721Z,71.94
2022-11-29T12:11:19.920Z,73.92
2022-11-29T12:14:03.700Z,74.38
2022-11-29T12:16:34.515Z,77.12
2022-11-29T12:19:05.417Z,76.06
2022-11-29T12:21:35.178Z,73.83
2022-11-29T12:24:09.517Z,74.12
2022-11-29T12:26:58.101Z,75.49
2022-11-29T12:29:26.733Z,76.44
2022-11-29T12:32:09.611Z,76.38
2022-11-29T12:34:36.574Z,75.31
2022-11-29T12:37:25.336Z,73.55
2022-11-29T12:39:57.268Z,73.99
2022-11-29T12:42:36.319Z,74.92
2022-11-29T12:45:05.203Z,75.76
2022-11-29T12:47:52.239Z,76.25
2022-11-29T12:50:41.801Z,74.42
2022-11-29T12:53:27.851Z,75.81
2022-11-29T12:56:04.382Z,76.26
2022-11-29T12:58:52.904Z,74.51
2022-11-29T13:01:30.688Z,75.26
2022-11-29T13:04:14.315Z,74.12
2022-11-29T13:06:48.537Z,73.05
2022-11-29T13:09:28.757Z,74.64
2022-11-29T13:11:58.678Z,74.16
2022-11-29T13:14:42.819Z,74.63
2022-11-29T13:17:19.608Z,74.44
2022-11-29T13:20:13.569Z,76.12
2022-11-29T13:22:48.076Z,74.24
2022-11-29T13:25:24.375Z,74.14
2022-11-29T13:28:02.424Z,74.79
2022-11-29T13:30:29.227Z,74.46
2022-11-29T13:33:03.800Z,74.19
2022-11-29T13:35:44.729Z,75.32
2022-11-29T13:38:34.566Z,71.72
2022-11-29T13:41:01.869Z,73.67
2022-11-29T13:43:35.422Z,72.96
2022-11-29T13:46:20.816Z,71.71
2022-11-29T13:48:49.677Z,73.43
2022-11-29T13:51:22.506Z,73.34
2022-11-29T13:53:49.701Z,72.81
2022-11-29T13:56:33.041Z,73.33
2022-11-29T13:59:06.041Z,74.38
2022-11-29T14:01:43.330Z,74.20
2022-11-29T14:04:27.548Z,72.38
2022-11-29T14:07:05.371Z,75.58
2022-11-29T14:09:35.125Z,75.61
2022-11-29T14:12:27.514Z,75.17
2022-11-29T14:14:57.649Z,76.17
2022-11-29T14:17:30.805Z,74.36
2022-11-29T14:20:17.486Z,74.69
2022-11-29T14:23:03.269Z,75.39
2022-11-29T14:28:23.292Z,74.68
2022-11-29T14:31:02.034Z,74.59
2022-11-29T14:33:47.698Z,76.23
2022-11-29T14:36:33.537Z,75.07
2022-11-29T14:39:03.753Z,76.10
2022-11-29T14:42:02.577Z,74.18
2022-11-29T14:44:40.187Z,72.79
2022-11-29T14:50:32.303Z,72.91
2022-11-29T14:52:59.508Z,72.56
2022-11-29T14:55:31.708Z,72.92
2022-11-29T14:58:01.840Z,75.08
2022-11-29T15:00:37.764Z,73.63
2022-11-29T15:03:28.917Z,75.32
2022-11-29T15:06:02.036Z,73.68
2022-11-29T15:08:33.319Z,73.80
2022-11-29T15:11:13.823Z,74.86
2022-11-29T15:13:49.830Z,77.29
2022-11-29T15:16:49.216Z,77.17
2022-11-29T15:19:36.213Z,76.57
2022-11-29T15:22:22.739Z,75.29
2022-11-29T15:24:52.717Z,76.06
2022-11-29T15:27:19.964Z,77.51
2022-11-29T15:29:49.878Z,76.44
2022-11-29T15:32:21.692Z,74.88
2022-11-29T15:34:50.657Z,75.04
2022-11-29T15:37:32.874Z,73.95
2022-11-29T15:40:07.982Z,73.71
2022-11-29T15:42:47.505Z,74.16
2022-11-29T15:45:28.609Z,74.47
2022-11-29T15:47:55.870Z,74.41
2022-11-29T15:50:33.579Z,75.54
2022-11-29T15:53:03.958Z,75.70
2022-11-29T15:55:31.225Z,72.93
2022-11-29T15:58:03.888Z,74.97
2022-11-29T16:00:34.099Z,75.00
2022-11-29T16:03:01.882Z,76.79
2022-11-29T16:05:33.412Z,76.11
2022-11-29T16:08:10.824Z,76.90
2022-11-29T16:10:46.490Z,75.34
2022-11-29T16:13:25.622Z,74.57
2022-11-29T16:16:05.126Z,75.89
2022-11-29T16:18:32.273Z,74.87
2022-11-29T16:21:00.242Z,73.06
2022-11-29T16:23:42.436Z,75.29
2022-11-29T16:26:15.211Z,75.47
2022-11-29T16:28:46.818Z,72.82
2022-11-29T16:31:20.516Z,72.95
2022-11-29T16:33:49.315Z,74.92
2022-11-29T16:36:17.877Z,77.96
2022-11-29T16:38:49.295Z,77.24
2022-11-29T16:41:24.324Z,77.63
2022-11-29T16:43:56.274Z,79.98
2022-11-29T16:46:22.952Z,78.01
2022-11-29T16:48:50.224Z,76.79
2022-11-29T16:51:31.937Z,79.01
2022-11-29T16:54:18.534Z,77.22
2022-11-29T16:56:45.250Z,78.09
2022-11-29T16:59:20.531Z,77.36
2022-11-29T17:01:53.854Z,78.41
2022-11-29T17:04:23.540Z,79.25
2022-11-29T17:06:52.954Z,79.61
2022-11-29T17:09:21.926Z,81.67
2022-11-29T17:11:48.758Z,80.18
2022-11-29T17:14:15.482Z,81.37
2022-11-29T17:16:42.308Z,80.43
2022-11-29T17:19:13.272Z,80.26
2022-11-29T17:21:40.040Z,79.19
2022-11-29T17:24:06.841Z,79.71
2022-11-29T17:26:33.627Z,77.74
2022-11-29T17:29:00.314Z,81.00
2022-11-29T17:31:27.102Z,81.08
2022-11-29T17:33:54.387Z,79.54
2022-11-29T17:36:21.698Z,81.42
2022-11-29T17:38:48.591Z,82.82
2022-11-29T17:41:16.762Z,82.13
2022-11-29T17:43:43.522Z,81.10
2022-11-29T17:46:11.117Z,81.68
2022-11-29T17:48:41.169Z,83.69
2022-11-29T17:51:28.764Z,81.45
2022-11-29T17:53:55.377Z,82.56
2022-11-29T17:56:25.274Z,83.90
2022-11-29T17:58:53.023Z,83.79
2022-11-29T18:01:20.760Z,81.21
2022-11-29T18:03:48.109Z,83.18
2022-11-29T18:06:19.612Z,83.33
2022-11-29T18:08:50.448Z,82.96
2022-11-29T18:11:25.017Z,79.99
2022-11-29T18:13:52.890Z,81.85
2022-11-29T18:16:20.996Z,81.95
2022-11-29T18:18:48.366Z,83.90
2022-11-29T18:21:15.190Z,84.24
2022-11-29T18:23:43.012Z,85.59
2022-11-29T18:26:14.788Z,85.04
2022-11-29T18:28:42.245Z,86.68
2022-11-29T18:31:16.747Z,86.39
2022-11-29T18:33:44.482Z,86.46
2022-11-29T18:36:12.565Z,84.26
2022-11-29T18:38:39.823Z,81.68
2022-11-29T18:41:08.136Z,82.64
2022-11-29T18:43:35.181Z,84.07
2022-11-29T18:46:15.865Z,82.30
2022-11-29T18:48:43.719Z,80.87
2022-11-29T18:51:11.613Z,81.94
2022-11-29T18:53:39.181Z,81.87
2022-11-29T18:56:11.520Z,79.30
2022-11-29T18:58:38.665Z,82.00
2022-11-29T19:01:10.026Z,80.73
2022-11-29T19:03:38.319Z,78.22
2022-11-29T19:06:06.281Z,78.69
2022-11-29T19:08:33.757Z,78.27
2022-11-29T19:11:11.702Z,80.12
2022-11-29T19:13:38.920Z,79.78
2022-11-29T19:16:10.479Z,80.98
2022-11-29T19:18:39.616Z,81.47
2022-11-29T19:21:14.184Z,80.01
2022-11-29T19:23:41.395Z,81.83
2022-11-29T19:26:09.776Z,83.32
2022-11-29T19:28:37.245Z,83.83
2022-11-29T19:31:05.747Z,82.58
2022-11-29T19:33:36.207Z,82.83
2022-11-29T19:36:07.089Z,81.11
2022-11-29T19:38:37.496Z,79.20
2022-11-29T19:41:27.735Z,81.31
2022-11-29T19:43:56.228Z,81.14
2022-11-29T19:46:27.638Z,82.51
2022-11-29T19:48:55.200Z,82.27
2022-11-29T19:51:22.738Z,81.72
2022-11-29T19:53:52.675Z,83.76
2022-11-29T19:56:20.789Z,82.89
2022-11-29T19:58:47.745Z,82.47
2022-11-29T20:01:23.112Z,81.75
2022-11-29T20:03:50.087Z,83.46
2022-11-29T20:06:17.087Z,82.16
2022-11-29T20:08:44.133Z,82.27
2022-11-29T20:11:15.714Z,81.60
2022-11-29T20:13:43.583Z,83.06
2022-11-29T20:16:11.593Z,81.72
2022-11-29T20:18:39.684Z,80.87
2022-11-29T20:21:10.979Z,81.38
2022-11-29T20:23:38.783Z,77.79
2022-11-29T20:26:08.340Z,80.42
2022-11-29T20:28:35.485Z,80.66
2022-11-29T20:31:06.576Z,79.24
2022-11-29T20:33:33.540Z,78.18
2022-11-29T20:36:06.817Z,78.74
2022-11-29T20:39:02.745Z,78.71
2022-11-29T20:41:45.619Z,80.28
2022-11-29T20:44:18.279Z,77.11
2022-11-29T20:46:45.156Z,75.31
2022-11-29T20:49:15.440Z,76.50
2022-11-29T20:51:46.593Z,75.74
2022-11-29T20:54:13.673Z,76.96
2022-11-29T20:56:40.500Z,77.62
2022-11-29T20:59:07.229Z,78.24
2022-11-29T21:01:34.089Z,76.21
2022-11-29T21:04:00.923Z,74.39
2022-11-29T21:06:27.681Z,75.42
2022-11-29T21:08:54.449Z,77.92
2022-11-29T21:11:21.254Z,74.94
2022-11-29T21:13:48.169Z,75.57
2022-11-29T21:16:15.224Z,77.30
2022-11-29T21:18:42.167Z,76.54
2022-11-29T21:21:18.105Z,76.33
2022-11-29T21:23:44.883Z,77.34
2022-11-29T21:26:11.717Z,74.60
2022-11-29T21:28:41.823Z,74.96
2022-11-29T21:31:11.551Z,75.98
2022-11-29T21:33:38.920Z,76.63
2022-11-29T21:36:06.428Z,76.94
2022-11-29T21:38:33.203Z,76.59
2022-11-29T21:40:59.982Z,73.45
2022-11-29T21:43:57.830Z,76.72
2022-11-29T21:46:13.498Z,80.52
2022-11-29T21:48:42.563Z,77.50
2022-11-29T21:51:10.408Z,77.50
2022-11-29T21:53:37.949Z,78.83
2022-11-29T21:56:08.754Z,76.55
2022-11-29T21:58:36.381Z,75.42
2022-11-29T22:01:13.523Z,77.00
2022-11-29T22:03:41.039Z,74.50
2022-11-29T22:06:09.317Z,78.21
2022-11-29T22:08:39.106Z,80.44
2022-11-29T22:11:10.546Z,80.37
2022-11-29T22:13:57.826Z,80.02
2022-11-29T22:16:24.917Z,77.07
2022-11-29T22:18:51.668Z,78.95
2022-11-29T22:21:18.455Z,78.59
2022-11-29T22:23:45.102Z,79.45
2022-11-29T22:26:12.247Z,76.96
2022-11-29T22:28:38.981Z,77.04
2022-11-29T22:31:06.813Z,76.76
2022-11-29T22:33:33.779Z,77.19
2022-11-29T22:36:07.278Z,73.91
2022-11-29T22:38:34.078Z,72.49
2022-11-29T22:41:05.456Z,71.20
2022-11-29T22:43:32.881Z,71.68
2022-11-29T22:46:06.130Z,75.82
2022-11-29T22:48:38.214Z,74.62
2022-11-29T22:51:08.559Z,75.88
2022-11-29T22:53:36.132Z,76.71
2022-11-29T22:56:04.383Z,78.99
2022-11-29T22:58:31.103Z,77.96
2022-11-29T23:01:05.522Z,75.64
2022-11-29T23:03:36.068Z,77.32
2022-11-29T23:06:04.113Z,77.71
2022-11-29T23:08:31.367Z,76.77
2022-11-29T23:10:58.333Z,77.61
2022-11-29T23:13:25.557Z,75.07
2022-11-29T23:15:52.810Z,72.98
2022-11-29T23:18:19.867Z,76.01
2022-11-29T23:20:46.573Z,75.20
2022-11-29T23:23:13.453Z,74.50
2022-11-29T23:25:46.565Z,75.10
2022-11-29T23:28:13.236Z,76.89
2022-11-29T23:30:39.892Z,77.16
2022-11-29T23:33:06.514Z,78.98
2022-11-29T23:35:33.451Z,77.17
2022-11-29T23:38:00.193Z,76.17
2022-11-29T23:40:26.861Z,77.89
2022-11-29T23:42:53.614Z,74.62
2022-11-29T23:45:21.478Z,75.68
2022-11-29T23:47:48.260Z,76.34
2022-11-29T23:50:14.930Z,76.68
2022-11-29T23:52:41.669Z,76.34
2022-11-29T23:55:09.351Z,73.86
2022-11-29T23:57:36.112Z,75.87
